Time;durP1;ratioP1;P1;durP2;ratioP2;P2;SDS_P1;SDS_P2;PMS_P1;PMS_P2;Temp;Humidity;BMP_temperature;BMP_pressure;BME280_temperature;BME280_humidity;BME280_pressure;Samples;Min_cycle;Max_cycle;Signal;HPM_P1;HPM_P2
2021/12/01 00:01:20;;;;;;;7.75;2.60;;;6.40;95.00;;;;;;4933771;29;20030;-63
2021/12/01 00:03:46;;;;;;;9.65;2.38;;;6.30;95.00;;;;;;4933150;29;20047;-62
2021/12/01 00:06:11;;;;;;;9.88;2.53;;;6.30;95.00;;;;;;4932491;29;20107;-63
2021/12/01 00:08:38;;;;;;;9.93;2.45;;;6.40;95.00;;;;;;4930703;29;20043;-63
2021/12/01 00:11:04;;;;;;;7.68;2.50;;;6.40;95.00;;;;;;4932894;29;20047;-63
2021/12/01 00:13:32;;;;;;;6.78;2.55;;;6.40;94.90;;;;;;4932367;29;20118;-63
2021/12/01 00:15:58;;;;;;;8.65;2.38;;;6.40;94.90;;;;;;4933891;29;20372;-63
2021/12/01 00:18:24;;;;;;;7.40;2.60;;;6.40;94.90;;;;;;4932998;29;20039;-63
2021/12/01 00:20:50;;;;;;;8.90;3.10;;;6.40;94.80;;;;;;4929982;29;20039;-63
2021/12/01 00:23:15;;;;;;;6.75;2.17;;;6.40;94.80;;;;;;4928944;29;20032;-63
2021/12/01 00:25:42;;;;;;;11.45;2.47;;;6.40;94.80;;;;;;4931082;29;20171;-63
2021/12/01 00:28:09;;;;;;;6.90;2.53;;;6.40;95.00;;;;;;4934146;29;20118;-62
2021/12/01 00:30:35;;;;;;;7.82;2.17;;;6.40;94.80;;;;;;4937159;29;20039;-63
2021/12/01 00:33:01;;;;;;;9.35;2.33;;;6.40;94.80;;;;;;4936945;29;20036;-63
2021/12/01 00:35:27;;;;;;;4.28;1.75;;;6.40;94.80;;;;;;4937738;29;20499;-63
2021/12/01 00:37:53;;;;;;;9.13;2.05;;;6.40;94.90;;;;;;4936894;29;20138;-63
2021/12/01 00:40:19;;;;;;;5.13;1.92;;;6.40;95.10;;;;;;4936897;29;20128;-63
2021/12/01 00:42:45;;;;;;;10.32;2.15;;;6.40;94.90;;;;;;4932795;29;20035;-63
2021/12/01 00:45:16;;;;;;;5.70;1.65;;;6.40;94.80;;;;;;4937585;29;20426;-64
2021/12/01 00:47:50;;;;;;;9.38;2.15;;;6.40;94.80;;;;;;4935860;29;20054;-62
2021/12/01 00:50:23;;;;;;;11.23;3.50;;;6.40;94.70;;;;;;4937320;29;20039;-63
2021/12/01 00:52:50;;;;;;;7.38;2.22;;;6.40;94.70;;;;;;4936537;29;20426;-63
2021/12/01 00:55:16;;;;;;;5.97;1.92;;;6.40;94.70;;;;;;4934825;29;20032;-63
2021/12/01 00:57:42;;;;;;;5.50;1.90;;;6.40;94.80;;;;;;4935743;29;20039;-63
2021/12/01 01:00:09;;;;;;;7.25;2.90;;;6.40;94.80;;;;;;4937223;29;20028;-63
2021/12/01 01:02:36;;;;;;;5.20;1.80;;;6.40;94.90;;;;;;4936107;29;20078;-63
2021/12/01 01:05:03;;;;;;;10.50;2.65;;;6.40;94.90;;;;;;4936930;29;20479;-63
2021/12/01 01:07:29;;;;;;;7.05;2.15;;;6.30;94.90;;;;;;4935027;29;20043;-62
2021/12/01 01:09:54;;;;;;;7.45;2.60;;;6.30;94.90;;;;;;4932178;29;20024;-63
2021/12/01 01:18:05;;;;;;;9.32;2.47;;;6.40;95.00;;;;;;4934027;29;20128;-63
2021/12/01 01:20:32;;;;;;;6.55;2.17;;;6.40;95.00;;;;;;4935105;29;20028;-63
2021/12/01 01:22:58;;;;;;;6.43;2.28;;;6.30;95.00;;;;;;4935007;29;20032;-63
2021/12/01 01:25:24;;;;;;;10.10;2.60;;;6.30;95.10;;;;;;4935671;29;20043;-63
2021/12/01 01:27:49;;;;;;;18.48;2.92;;;6.40;95.10;;;;;;4935015;29;20043;-63
2021/12/01 01:30:15;;;;;;;7.70;2.85;;;6.30;95.10;;;;;;4931401;29;20024;-63
2021/12/01 01:32:41;;;;;;;9.07;2.55;;;6.30;95.20;;;;;;4933779;29;20122;-63
2021/12/01 01:35:07;;;;;;;13.93;2.70;;;6.40;95.20;;;;;;4936754;29;20107;-63
2021/12/01 01:37:32;;;;;;;9.18;2.72;;;6.40;95.30;;;;;;4935346;29;20519;-63
2021/12/01 01:39:58;;;;;;;12.18;2.60;;;6.40;95.30;;;;;;4936025;29;20080;-63
2021/12/01 01:42:24;;;;;;;9.35;2.47;;;6.40;95.30;;;;;;4946651;29;20047;-63
2021/12/01 01:44:50;;;;;;;9.68;3.17;;;6.40;95.40;;;;;;4928739;29;20036;-63
2021/12/01 01:47:15;;;;;;;9.25;2.70;;;6.40;95.40;;;;;;4933717;29;20127;-63
2021/12/01 01:52:13;;;;;;;15.77;5.15;;;6.40;95.50;;;;;;4935082;29;20348;-63
2021/12/01 01:54:38;;;;;;;12.27;2.58;;;6.30;95.50;;;;;;4936196;29;20047;-63
2021/12/01 01:57:04;;;;;;;11.68;3.47;;;6.30;95.50;;;;;;4935476;29;20020;-63
2021/12/01 01:59:30;;;;;;;8.55;2.80;;;6.30;95.50;;;;;;4932673;29;20035;-63
2021/12/01 02:01:56;;;;;;;11.05;2.42;;;6.30;95.60;;;;;;4932565;29;20396;-63
2021/12/01 02:04:23;;;;;;;12.30;2.88;;;6.30;95.70;;;;;;4936225;29;20028;-63
2021/12/01 02:06:49;;;;;;;14.68;2.88;;;6.30;95.70;;;;;;4929145;29;20488;-63
2021/12/01 02:09:20;;;;;;;14.38;3.17;;;6.30;95.80;;;;;;4934273;29;20035;-63
2021/12/01 02:11:46;;;;;;;13.90;3.20;;;6.30;95.80;;;;;;4934517;29;20028;-63
2021/12/01 02:14:12;;;;;;;11.45;3.53;;;6.20;95.80;;;;;;4934170;29;20396;-63
2021/12/01 02:16:38;;;;;;;10.38;2.75;;;6.20;95.80;;;;;;4935466;29;20028;-63
2021/12/01 02:19:05;;;;;;;12.43;3.30;;;6.20;95.90;;;;;;4934895;29;20058;-63
2021/12/01 02:21:31;;;;;;;7.82;3.10;;;6.20;95.90;;;;;;4935586;29;20509;-63
2021/12/01 02:24:09;;;;;;;10.35;3.60;;;6.30;95.90;;;;;;4932054;29;20086;-63
2021/12/01 02:26:44;;;;;;;11.15;2.60;;;6.30;96.00;;;;;;4929301;29;20518;-63
2021/12/01 02:29:11;;;;;;;;;;;6.30;96.00;;;;;;4933930;29;20036;-63
2021/12/01 02:31:38;;;;;;;10.65;2.90;;;6.30;95.90;;;;;;4935149;29;19910;-63
2021/12/01 02:34:09;;;;;;;10.48;2.97;;;6.20;95.90;;;;;;4934522;29;20634;-63
2021/12/01 02:36:36;;;;;;;18.38;3.88;;;6.20;95.90;;;;;;4935329;29;20028;-63
2021/12/01 02:39:06;;;;;;;8.02;3.20;;;6.20;96.00;;;;;;4933190;29;20114;-63
2021/12/01 02:41:33;;;;;;;7.78;2.53;;;6.20;96.00;;;;;;4940767;29;20070;-62
2021/12/01 02:44:00;;;;;;;10.75;2.70;;;6.20;96.10;;;;;;4930889;29;20506;-62
2021/12/01 02:46:26;;;;;;;11.70;3.15;;;6.20;96.10;;;;;;4934749;29;20487;-63
2021/12/01 02:48:52;;;;;;;10.93;3.20;;;6.20;96.20;;;;;;4930235;29;20406;-63
2021/12/01 02:51:23;;;;;;;10.18;2.78;;;6.20;96.20;;;;;;4930212;29;20031;-63
2021/12/01 02:53:49;;;;;;;11.85;3.03;;;6.20;96.20;;;;;;4931706;29;20032;-63
2021/12/01 02:56:16;;;;;;;9.38;3.60;;;6.30;96.30;;;;;;4935688;29;20039;-62
2021/12/01 02:58:43;;;;;;;9.25;3.08;;;6.30;96.30;;;;;;4934158;29;20506;-63
2021/12/01 03:01:20;;;;;;;11.85;3.25;;;6.30;96.40;;;;;;4934279;29;20027;-63
2021/12/01 03:03:47;;;;;;;10.50;3.03;;;6.30;96.40;;;;;;4922491;29;20036;-63
2021/12/01 03:06:13;;;;;;;8.95;3.42;;;6.30;96.40;;;;;;4917731;29;20067;-63
2021/12/01 03:08:43;;;;;;;17.45;3.25;;;6.30;96.40;;;;;;4924235;29;20464;-63
2021/12/01 03:11:09;;;;;;;8.63;2.60;;;6.30;96.50;;;;;;4935647;29;20024;-63
2021/12/01 03:13:35;;;;;;;15.98;2.83;;;6.30;96.50;;;;;;4947377;29;20035;-63
2021/12/01 03:16:01;;;;;;;11.70;3.58;;;6.30;96.50;;;;;;4934804;29;20023;-63
2021/12/01 03:18:27;;;;;;;12.82;3.00;;;6.30;96.70;;;;;;4930074;29;20023;-63
2021/12/01 03:20:53;;;;;;;8.82;3.28;;;6.30;96.80;;;;;;4935078;29;20032;-63
2021/12/01 03:23:20;;;;;;;13.57;2.80;;;6.30;96.60;;;;;;4936135;28;20163;-63
2021/12/01 03:25:46;;;;;;;11.40;2.83;;;6.40;96.70;;;;;;4934349;29;20110;-63
2021/12/01 03:28:12;;;;;;;11.77;3.20;;;6.40;96.70;;;;;;4933579;29;20123;-63
2021/12/01 03:30:39;;;;;;;8.73;3.65;;;6.40;96.70;;;;;;4933328;29;20618;-63
2021/12/01 03:33:07;;;;;;;11.52;2.95;;;6.40;96.70;;;;;;4934044;29;20043;-63
2021/12/01 03:35:34;;;;;;;13.32;3.70;;;6.40;96.80;;;;;;4936968;29;20035;-63
2021/12/01 03:38:00;;;;;;;13.18;3.55;;;6.40;96.80;;;;;;4921995;29;20058;-63
2021/12/01 03:40:25;;;;;;;10.52;2.95;;;6.40;96.80;;;;;;4925673;29;20575;-63
2021/12/01 03:42:51;;;;;;;12.00;3.50;;;6.40;96.80;;;;;;4932179;29;20040;-63
2021/12/01 03:45:17;;;;;;;11.48;3.75;;;6.40;96.80;;;;;;4932913;29;20032;-63
2021/12/01 03:47:43;;;;;;;11.93;3.33;;;6.40;96.90;;;;;;4932169;29;20126;-62
2021/12/01 03:50:10;;;;;;;14.02;3.90;;;6.40;97.00;;;;;;4929415;29;20024;-63
2021/12/01 03:52:36;;;;;;;15.40;3.35;;;6.40;97.00;;;;;;4921230;29;20106;-62
2021/12/01 03:55:04;;;;;;;14.13;3.42;;;6.40;97.00;;;;;;4934341;29;20509;-63
2021/12/01 03:57:29;;;;;;;14.75;4.50;;;6.40;97.00;;;;;;4933405;29;20059;-62
2021/12/01 03:59:55;;;;;;;15.68;3.53;;;6.40;97.00;;;;;;4934100;29;20067;-62
2021/12/01 04:02:21;;;;;;;9.73;3.45;;;6.40;97.00;;;;;;4933199;29;20039;-62
2021/12/01 04:04:46;;;;;;;15.68;3.53;;;6.40;97.10;;;;;;4927526;29;20024;-62
2021/12/01 04:07:12;;;;;;;9.38;3.50;;;6.50;97.10;;;;;;4934159;29;20136;-63
2021/12/01 04:09:40;;;;;;;15.32;3.33;;;6.40;97.10;;;;;;4923972;29;20371;-62
2021/12/01 04:12:07;;;;;;;13.23;3.05;;;6.40;97.20;;;;;;4933314;29;20047;-62
2021/12/01 04:14:33;;;;;;;16.88;3.28;;;6.50;97.20;;;;;;4932528;29;20028;-62
2021/12/01 04:16:58;;;;;;;11.55;3.17;;;6.50;97.20;;;;;;4933526;29;20035;-62
2021/12/01 04:19:24;;;;;;;8.52;3.08;;;6.50;97.30;;;;;;4932510;29;20440;-63
2021/12/01 04:21:49;;;;;;;9.75;3.25;;;6.50;97.30;;;;;;4925909;29;20028;-62
2021/12/01 04:24:15;;;;;;;11.45;2.83;;;6.50;97.30;;;;;;4927707;29;20082;-62
2021/12/01 04:26:41;;;;;;;12.68;2.95;;;6.50;97.30;;;;;;4933071;29;20398;-62
2021/12/01 04:29:06;;;;;;;10.80;2.97;;;6.50;97.40;;;;;;4931982;29;20143;-62
2021/12/01 04:31:35;;;;;;;10.07;3.25;;;6.50;97.40;;;;;;4933856;29;20023;-62
2021/12/01 04:34:02;;;;;;;11.27;2.90;;;6.60;97.70;;;;;;4931143;29;20039;-62
2021/12/01 04:36:33;;;;;;;10.60;2.67;;;6.50;97.50;;;;;;4933656;29;20027;-62
2021/12/01 04:39:03;;;;;;;9.38;2.95;;;6.60;97.60;;;;;;4932577;29;20619;-62
2021/12/01 04:41:30;;;;;;;10.32;3.30;;;6.60;97.60;;;;;;4933407;29;20110;-62
2021/12/01 04:43:59;;;;;;;11.07;2.72;;;6.50;97.70;;;;;;4932833;29;20028;-62
2021/12/01 04:46:25;;;;;;;12.52;2.90;;;6.50;97.70;;;;;;4933539;29;20043;-62
2021/12/01 04:48:51;;;;;;;11.18;3.72;;;6.60;97.80;;;;;;4930038;29;20055;-63
2021/12/01 04:51:17;;;;;;;10.02;3.00;;;6.60;97.80;;;;;;4933928;29;20031;-63
2021/12/01 04:53:44;;;;;;;10.00;3.50;;;6.60;97.90;;;;;;4929625;29;20039;-63
2021/12/01 04:56:10;;;;;;;10.85;3.67;;;6.60;98.00;;;;;;4933607;29;20035;-62
2021/12/01 04:58:36;;;;;;;13.50;3.30;;;6.60;98.00;;;;;;4931015;29;20040;-62
2021/12/01 05:01:03;;;;;;;8.85;2.70;;;6.60;98.00;;;;;;4933292;29;20364;-63
2021/12/01 05:03:30;;;;;;;10.57;3.40;;;6.60;98.10;;;;;;4931256;29;20028;-63
2021/12/01 05:05:56;;;;;;;9.25;4.03;;;6.60;98.10;;;;;;4932655;29;20039;-63
2021/12/01 05:08:22;;;;;;;17.95;3.60;;;6.50;98.20;;;;;;4931695;29;20042;-63
2021/12/01 05:10:49;;;;;;;12.57;3.50;;;6.50;98.20;;;;;;4933793;29;20082;-62
2021/12/01 05:13:15;;;;;;;15.18;3.25;;;6.50;98.20;;;;;;4931314;29;20031;-62
2021/12/01 05:15:40;;;;;;;11.07;4.43;;;6.50;98.30;;;;;;4937315;29;20042;-63
2021/12/01 05:18:08;;;;;;;10.05;3.35;;;6.50;98.30;;;;;;4935531;29;20384;-61
2021/12/01 05:20:34;;;;;;;12.07;4.13;;;6.50;98.30;;;;;;4936083;29;20114;-63
2021/12/01 05:22:59;;;;;;;15.38;3.53;;;6.50;98.40;;;;;;4931712;29;20118;-61
2021/12/01 05:25:25;;;;;;;12.73;3.33;;;6.50;98.50;;;;;;4936089;29;20475;-61
2021/12/01 05:27:50;;;;;;;11.55;2.90;;;6.50;98.50;;;;;;4927883;29;20071;-61
2021/12/01 05:30:18;;;;;;;10.95;3.22;;;6.50;98.60;;;;;;4938078;29;20382;-61
2021/12/01 05:32:44;;;;;;;9.10;3.03;;;6.50;98.60;;;;;;4932182;29;20040;-61
2021/12/01 05:35:09;;;;;;;12.45;3.08;;;6.50;98.70;;;;;;4934602;29;20038;-61
2021/12/01 05:37:35;;;;;;;14.80;3.30;;;6.50;98.70;;;;;;4934106;29;20036;-62
2021/12/01 05:40:01;;;;;;;13.15;3.70;;;6.50;98.80;;;;;;4935301;29;20079;-61
2021/12/01 05:42:27;;;;;;;11.07;2.95;;;6.50;98.90;;;;;;4930468;29;20488;-60
2021/12/01 05:44:52;;;;;;;10.48;2.72;;;6.50;98.90;;;;;;4935987;29;20035;-62
2021/12/01 05:47:18;;;;;;;8.98;2.78;;;6.50;99.00;;;;;;4936176;29;20396;-62
2021/12/01 05:49:44;;;;;;;9.05;3.83;;;6.50;99.00;;;;;;4932703;29;20552;-61
2021/12/01 05:52:12;;;;;;;10.57;3.47;;;6.60;99.10;;;;;;4934043;29;20133;-61
2021/12/01 05:54:38;;;;;;;9.13;3.30;;;6.60;99.10;;;;;;4935066;29;20079;-61
2021/12/01 05:57:04;;;;;;;10.40;3.33;;;6.50;99.20;;;;;;4935207;29;20134;-62
2021/12/01 05:59:30;;;;;;;10.25;3.88;;;6.50;99.20;;;;;;4935540;29;20114;-61
2021/12/01 06:01:56;;;;;;;15.60;3.10;;;6.50;99.30;;;;;;4935866;29;20207;-62
2021/12/01 06:04:25;;;;;;;15.27;3.13;;;6.50;99.30;;;;;;4935952;29;20032;-61
2021/12/01 06:06:52;;;;;;;8.73;2.70;;;6.60;99.40;;;;;;4935016;29;20382;-61
2021/12/01 06:09:17;;;;;;;11.82;2.92;;;6.60;99.40;;;;;;4922578;29;20153;-61
2021/12/01 06:11:46;;;;;;;12.63;3.47;;;6.60;99.50;;;;;;4930224;29;20119;-62
2021/12/01 06:14:13;;;;;;;13.20;3.58;;;6.60;99.60;;;;;;4934335;29;20163;-61
2021/12/01 06:16:39;;;;;;;10.73;2.97;;;6.60;99.60;;;;;;4933724;29;20028;-61
2021/12/01 06:19:05;;;;;;;12.38;3.88;;;6.60;99.60;;;;;;4935154;29;20035;-62
2021/12/01 06:21:30;;;;;;;11.63;3.97;;;6.60;99.60;;;;;;4935819;29;20419;-62
2021/12/01 06:23:56;;;;;;;14.02;4.25;;;6.70;99.60;;;;;;4934000;29;20479;-62
2021/12/01 06:26:21;;;;;;;7.63;3.90;;;6.60;99.60;;;;;;4933903;28;20062;-64
2021/12/01 06:28:47;;;;;;;10.25;3.85;;;6.60;99.60;;;;;;4928230;28;20122;-65
2021/12/01 06:31:13;;;;;;;11.15;3.78;;;6.60;99.60;;;;;;4934901;29;20027;-65
2021/12/01 06:33:38;;;;;;;17.17;4.75;;;6.60;99.70;;;;;;4933831;29;20440;-62
2021/12/01 06:36:04;;;;;;;12.13;4.28;;;6.60;99.70;;;;;;4935824;29;20032;-62
2021/12/01 06:38:32;;;;;;;9.77;4.00;;;6.60;99.80;;;;;;4933632;29;20087;-61
2021/12/01 06:40:58;;;;;;;10.10;3.70;;;6.60;99.80;;;;;;4928642;29;20111;-61
2021/12/01 06:43:24;;;;;;;9.55;3.90;;;6.60;99.90;;;;;;4928604;29;20106;-62
2021/12/01 06:45:49;;;;;;;7.85;4.18;;;6.60;99.90;;;;;;4931087;29;20028;-62
2021/12/01 06:48:15;;;;;;;10.65;3.30;;;6.60;99.90;;;;;;4933401;29;20120;-62
2021/12/01 06:50:41;;;;;;;7.95;3.22;;;6.60;99.90;;;;;;4935431;29;20036;-63
2021/12/01 06:53:07;;;;;;;9.05;3.60;;;6.60;99.90;;;;;;4929446;29;20118;-63
2021/12/01 06:55:33;;;;;;;7.60;3.67;;;6.60;99.90;;;;;;4928667;29;20032;-63
2021/12/01 06:57:59;;;;;;;10.23;4.55;;;6.70;99.90;;;;;;4928604;29;20028;-63
2021/12/01 07:00:25;;;;;;;10.13;3.67;;;6.70;99.90;;;;;;4942274;29;20094;-63
2021/12/01 07:02:51;;;;;;;9.13;3.45;;;6.70;99.90;;;;;;4925487;29;20123;-63
2021/12/01 07:05:17;;;;;;;10.10;4.03;;;6.80;99.90;;;;;;4927866;29;20055;-63
2021/12/01 07:07:43;;;;;;;8.02;3.17;;;6.80;99.90;;;;;;4926203;29;20187;-63
2021/12/01 07:10:12;;;;;;;7.80;3.40;;;6.80;99.90;;;;;;4927736;29;20086;-63
2021/12/01 07:12:38;;;;;;;5.72;3.03;;;6.80;99.90;;;;;;4926899;29;20059;-63
2021/12/01 07:15:05;;;;;;;5.80;3.58;;;6.80;99.90;;;;;;4927791;29;20031;-63
2021/12/01 07:17:30;;;;;;;7.40;3.38;;;6.80;99.90;;;;;;4927571;29;20032;-63
2021/12/01 07:19:56;;;;;;;6.50;4.10;;;6.90;99.90;;;;;;4927720;29;20084;-62
2021/12/01 07:22:22;;;;;;;5.38;3.38;;;6.90;99.90;;;;;;4942061;29;20027;-62
2021/12/01 07:24:47;;;;;;;6.85;3.63;;;6.90;99.90;;;;;;4928520;29;20111;-64
2021/12/01 07:27:14;;;;;;;8.55;3.97;;;6.90;99.90;;;;;;4932526;29;20047;-63
2021/12/01 07:29:42;;;;;;;8.43;3.72;;;6.90;99.90;;;;;;4927121;29;20119;-63
2021/12/01 07:32:09;;;;;;;6.00;3.70;;;6.90;99.90;;;;;;4928429;29;20091;-63
2021/12/01 07:34:41;;;;;;;5.55;3.90;;;6.90;99.90;;;;;;4926325;29;20036;-63
2021/12/01 07:37:11;;;;;;;6.97;3.30;;;7.00;99.90;;;;;;4928513;29;20082;-64
2021/12/01 07:39:37;;;;;;;6.68;3.95;;;7.00;99.90;;;;;;4929485;29;20428;-63
2021/12/01 07:42:04;;;;;;;6.25;3.65;;;7.10;99.90;;;;;;4931030;29;20091;-63
2021/12/01 07:44:30;;;;;;;8.20;4.20;;;7.10;99.90;;;;;;4925256;29;20038;-63
2021/12/01 07:46:55;;;;;;;7.65;3.72;;;7.20;99.90;;;;;;4923970;29;20043;-63
2021/12/01 07:49:21;;;;;;;6.90;3.65;;;7.20;99.90;;;;;;4928589;29;20050;-64
2021/12/01 07:51:47;;;;;;;8.57;3.90;;;7.20;99.90;;;;;;4933912;29;20025;-64
2021/12/01 07:54:12;;;;;;;7.32;3.90;;;7.30;99.90;;;;;;4933583;29;20393;-63
2021/12/01 07:56:38;;;;;;;11.05;4.05;;;7.30;99.90;;;;;;4932847;29;20035;-64
2021/12/01 07:59:03;;;;;;;5.22;3.72;;;7.30;99.90;;;;;;4929182;29;20048;-64
2021/12/01 08:01:29;;;;;;;5.13;4.15;;;7.40;99.90;;;;;;4930650;29;20023;-64
2021/12/01 08:03:55;;;;;;;8.82;4.35;;;7.40;99.90;;;;;;4928814;29;20024;-64
2021/12/01 08:06:21;;;;;;;5.32;4.03;;;7.50;99.90;;;;;;4927350;29;20024;-63
2021/12/01 08:08:47;;;;;;;5.72;4.00;;;7.50;99.90;;;;;;4932771;29;20107;-64
2021/12/01 08:11:12;;;;;;;5.47;3.90;;;7.50;99.90;;;;;;4932859;29;20027;-64
2021/12/01 08:13:38;;;;;;;6.60;4.72;;;7.60;99.90;;;;;;4931020;29;20465;-63
2021/12/01 08:16:04;;;;;;;6.78;4.93;;;7.70;99.90;;;;;;4932506;29;20506;-63
2021/12/01 08:18:30;;;;;;;7.20;4.45;;;7.70;99.90;;;;;;4930694;29;20475;-63
2021/12/01 08:20:55;;;;;;;7.70;5.32;;;7.80;99.90;;;;;;4932837;29;20640;-64
2021/12/01 08:23:21;;;;;;;7.35;5.10;;;7.80;99.90;;;;;;4931301;29;20055;-64
2021/12/01 08:25:47;;;;;;;7.80;5.00;;;7.90;99.90;;;;;;4931663;29;20028;-64
2021/12/01 08:28:12;;;;;;;7.15;5.00;;;7.90;99.90;;;;;;4931286;29;20403;-64
2021/12/01 08:30:38;;;;;;;13.32;5.57;;;8.00;99.90;;;;;;4932874;29;20508;-64
2021/12/01 08:33:04;;;;;;;7.28;4.90;;;8.10;99.90;;;;;;4925030;29;20104;-64
2021/12/01 08:35:29;;;;;;;6.13;4.45;;;8.10;99.90;;;;;;4930842;29;20371;-63
2021/12/01 08:37:55;;;;;;;6.35;4.13;;;8.20;99.90;;;;;;4931451;29;20028;-63
2021/12/01 08:40:21;;;;;;;6.30;4.28;;;8.30;99.90;;;;;;4932741;29;20047;-64
2021/12/01 08:42:47;;;;;;;6.00;4.15;;;8.40;99.90;;;;;;4931985;29;20027;-64
2021/12/01 08:45:14;;;;;;;4.90;4.00;;;8.40;99.90;;;;;;4930531;29;20035;-64
2021/12/01 08:47:40;;;;;;;5.53;4.30;;;8.50;99.90;;;;;;4930369;29;20134;-65
2021/12/01 08:50:08;;;;;;;5.10;3.90;;;8.50;99.90;;;;;;4927836;29;20110;-64
2021/12/01 08:52:35;;;;;;;5.10;4.07;;;8.50;99.90;;;;;;4933359;29;20388;-64
2021/12/01 08:55:01;;;;;;;5.68;4.03;;;8.60;99.90;;;;;;4928815;29;20032;-64
2021/12/01 08:57:26;;;;;;;7.13;4.45;;;8.60;99.90;;;;;;4928187;29;20458;-64
2021/12/01 08:59:52;;;;;;;5.35;3.90;;;8.60;99.90;;;;;;4929227;29;20024;-64
2021/12/01 09:02:18;;;;;;;7.18;4.00;;;8.60;99.90;;;;;;4928579;29;20574;-64
2021/12/01 09:04:45;;;;;;;5.30;4.00;;;8.70;99.90;;;;;;4927344;29;20027;-64
2021/12/01 09:07:10;;;;;;;6.05;3.78;;;8.70;99.90;;;;;;4933762;29;20020;-65
2021/12/01 09:09:36;;;;;;;5.57;3.88;;;8.80;99.90;;;;;;4935293;29;20040;-64
2021/12/01 09:12:02;;;;;;;4.93;3.85;;;8.80;99.90;;;;;;4935921;29;20448;-63
2021/12/01 09:14:28;;;;;;;7.10;4.28;;;8.80;99.90;;;;;;4929237;29;20036;-64
2021/12/01 09:16:55;;;;;;;4.20;3.42;;;8.80;99.90;;;;;;4936873;29;20517;-63
2021/12/01 09:19:21;;;;;;;4.65;3.42;;;8.80;99.90;;;;;;4936456;29;20409;-63
2021/12/01 09:21:48;;;;;;;5.28;3.65;;;8.80;99.90;;;;;;4935954;29;20122;-63
2021/12/01 09:24:15;;;;;;;5.95;3.83;;;8.90;99.90;;;;;;4935671;29;20035;-63
2021/12/01 09:26:42;;;;;;;4.10;3.35;;;8.80;99.90;;;;;;4935536;29;20036;-63
2021/12/01 09:29:08;;;;;;;5.07;3.60;;;8.90;99.90;;;;;;4935544;29;20496;-64
2021/12/01 09:31:34;;;;;;;4.40;3.05;;;8.90;99.90;;;;;;4936570;29;20562;-63
2021/12/01 09:33:59;;;;;;;3.97;2.85;;;8.90;99.90;;;;;;4934904;29;20110;-63
2021/12/01 09:36:25;;;;;;;3.35;2.40;;;8.90;99.90;;;;;;4936764;29;20023;-63
2021/12/01 09:38:51;;;;;;;3.22;2.40;;;8.90;99.90;;;;;;4935738;29;20035;-63
2021/12/01 09:41:17;;;;;;;3.28;2.60;;;9.00;99.90;;;;;;4936808;29;20036;-63
2021/12/01 09:43:43;;;;;;;3.33;2.30;;;9.00;99.90;;;;;;4935335;29;20047;-63
2021/12/01 09:46:09;;;;;;;3.35;2.25;;;9.00;99.90;;;;;;4936574;29;20055;-63
2021/12/01 09:48:40;;;;;;;3.88;2.50;;;9.00;99.90;;;;;;4934491;29;20063;-63
2021/12/01 09:51:07;;;;;;;4.88;2.63;;;9.00;99.90;;;;;;4917977;29;20036;-64
2021/12/01 09:53:34;;;;;;;3.70;2.53;;;9.00;99.90;;;;;;4925639;29;20028;-64
2021/12/01 09:55:59;;;;;;;11.63;6.68;;;9.10;99.90;;;;;;4936484;29;20518;-64
2021/12/01 09:58:30;;;;;;;3.78;2.90;;;9.10;99.90;;;;;;4934643;29;20163;-63
2021/12/01 10:01:00;;;;;;;5.30;2.45;;;9.10;99.90;;;;;;4935852;29;20110;-64
2021/12/01 10:03:26;;;;;;;3.90;2.33;;;9.10;99.90;;;;;;4936055;29;20037;-63
2021/12/01 10:06:06;;;;;;;3.80;2.60;;;9.10;99.90;;;;;;4936597;29;20032;-63
2021/12/01 10:08:45;;;;;;;3.83;2.38;;;9.20;99.90;;;;;;4935332;29;20040;-64
2021/12/01 10:11:17;;;;;;;3.67;2.60;;;9.20;99.90;;;;;;4951010;29;20526;-63
2021/12/01 10:13:46;;;;;;;4.18;2.58;;;9.20;99.90;;;;;;4934804;29;20122;-63
2021/12/01 10:16:14;;;;;;;3.30;2.20;;;9.10;99.90;;;;;;4936401;29;20405;-63
2021/12/01 10:18:41;;;;;;;5.57;2.80;;;9.10;99.90;;;;;;4934453;29;20032;-63
2021/12/01 10:21:12;;;;;;;3.80;2.78;;;9.20;99.90;;;;;;4936100;29;20034;-64
2021/12/01 10:23:48;;;;;;;3.22;2.35;;;9.20;99.90;;;;;;4934202;29;20032;-64
2021/12/01 10:26:16;;;;;;;3.40;2.42;;;9.20;99.90;;;;;;4935996;29;20047;-64
2021/12/01 10:28:48;;;;;;;4.30;3.13;;;9.20;99.90;;;;;;4934744;29;20084;-64
2021/12/01 10:31:15;;;;;;;4.85;3.05;;;9.20;99.90;;;;;;4936097;29;20028;-64
2021/12/01 10:33:42;;;;;;;6.80;3.33;;;9.20;99.90;;;;;;4934092;29;20414;-64
2021/12/01 10:36:10;;;;;;;3.88;2.92;;;9.20;99.90;;;;;;4935598;29;20114;-63
2021/12/01 10:38:39;;;;;;;3.95;2.47;;;9.30;99.90;;;;;;4935031;29;20031;-63
2021/12/01 10:41:10;;;;;;;7.80;3.97;;;9.30;99.90;;;;;;4933788;29;20444;-63
2021/12/01 10:43:39;;;;;;;7.60;3.90;;;9.30;99.90;;;;;;4934279;29;20110;-63
2021/12/01 10:46:07;;;;;;;4.43;2.70;;;9.30;99.90;;;;;;4935609;29;20078;-63
2021/12/01 10:48:34;;;;;;;4.45;3.00;;;9.30;99.90;;;;;;4931955;29;20062;-63
2021/12/01 10:51:00;;;;;;;3.65;2.45;;;9.40;99.90;;;;;;4916242;29;20111;-63
2021/12/01 10:53:26;;;;;;;3.53;2.63;;;9.30;99.90;;;;;;4934024;29;20114;-63
2021/12/01 10:56:02;;;;;;;3.78;2.53;;;9.40;99.90;;;;;;4935532;29;20380;-63
2021/12/01 10:58:40;;;;;;;4.22;2.38;;;9.30;99.90;;;;;;4933787;29;20036;-63
2021/12/01 11:01:19;;;;;;;4.43;2.65;;;9.40;99.90;;;;;;4934222;29;20373;-63
2021/12/01 11:03:45;;;;;;;3.63;2.85;;;9.40;99.90;;;;;;4933757;29;20094;-63
2021/12/01 11:06:23;;;;;;;5.50;3.38;;;9.40;99.90;;;;;;4935289;29;20487;-63
2021/12/01 11:08:55;;;;;;;4.72;2.78;;;9.40;99.90;;;;;;4934414;29;20040;-64
2021/12/01 11:11:23;;;;;;;3.90;2.97;;;9.40;99.90;;;;;;4934802;29;20043;-65
2021/12/01 11:13:50;;;;;;;3.83;2.92;;;9.40;99.90;;;;;;4935452;29;20032;-64
2021/12/01 11:16:20;;;;;;;5.28;2.92;;;9.40;99.90;;;;;;4933130;29;20071;-63
2021/12/01 11:18:49;;;;;;;5.45;3.17;;;9.40;99.90;;;;;;4925572;29;20511;-64
2021/12/01 11:21:22;;;;;;;3.88;2.70;;;9.30;99.90;;;;;;4915741;29;20468;-64
2021/12/01 11:23:56;;;;;;;4.53;3.15;;;9.30;99.90;;;;;;4924819;29;20032;-63
2021/12/01 11:26:33;;;;;;;5.10;3.10;;;9.40;99.90;;;;;;4934881;29;20420;-63
2021/12/01 11:29:02;;;;;;;3.92;2.53;;;9.30;99.90;;;;;;4933375;29;20039;-63
2021/12/01 11:31:29;;;;;;;3.67;2.67;;;9.30;99.90;;;;;;4934821;29;20566;-63
2021/12/01 11:33:59;;;;;;;4.68;3.03;;;9.30;99.90;;;;;;4932370;29;20055;-63
2021/12/01 11:36:30;;;;;;;3.90;2.72;;;9.30;99.90;;;;;;4933053;29;20251;-64
2021/12/01 11:39:01;;;;;;;4.03;2.67;;;9.30;99.90;;;;;;4945483;29;20103;-63
2021/12/01 11:41:28;;;;;;;4.15;2.65;;;9.30;99.90;;;;;;4934234;29;20451;-63
2021/12/01 11:43:56;;;;;;;4.38;2.97;;;9.30;99.90;;;;;;4933640;29;20086;-62
2021/12/01 11:46:22;;;;;;;4.30;3.25;;;9.30;99.90;;;;;;4934577;29;20101;-61
2021/12/01 11:48:50;;;;;;;4.10;2.85;;;9.30;99.90;;;;;;4931851;29;20498;-64
2021/12/01 11:51:35;;;;;;;8.48;3.38;;;9.30;99.90;;;;;;4934442;29;20036;-64
2021/12/01 11:54:09;;;;;;;4.05;2.90;;;9.30;99.90;;;;;;4930723;29;20044;-64
2021/12/01 11:56:37;;;;;;;3.73;2.77;;;9.30;99.90;;;;;;4934543;29;20125;-64
2021/12/01 11:59:14;;;;;;;5.40;3.10;;;9.30;99.90;;;;;;4933935;29;20103;-64
2021/12/01 12:02:02;;;;;;;8.13;3.10;;;9.40;99.90;;;;;;4934472;29;20505;-64
2021/12/01 12:04:38;;;;;;;5.38;3.33;;;9.40;99.90;;;;;;4927897;29;20035;-64
2021/12/01 12:07:10;;;;;;;6.25;3.63;;;9.30;99.90;;;;;;4938292;28;20046;-63
2021/12/01 12:09:37;;;;;;;4.43;2.90;;;9.30;99.90;;;;;;4931444;29;20063;-63
2021/12/01 12:12:11;;;;;;;5.03;3.47;;;9.40;99.90;;;;;;4936978;28;20036;-64
2021/12/01 12:14:45;;;;;;;3.72;2.35;;;9.30;99.90;;;;;;4925095;29;20031;-64
2021/12/01 12:17:18;;;;;;;3.92;2.60;;;9.40;99.90;;;;;;4931725;29;20027;-64
2021/12/01 12:19:44;;;;;;;4.93;2.75;;;9.40;99.90;;;;;;4931045;29;20035;-64
2021/12/01 12:22:12;;;;;;;4.93;2.97;;;9.30;99.90;;;;;;4932015;29;20028;-64
2021/12/01 12:24:50;;;;;;;4.00;2.60;;;9.30;99.90;;;;;;4930211;29;20794;-65
2021/12/01 12:27:47;;;;;;;6.25;2.72;;;9.40;99.90;;;;;;4937230;28;20039;-64
2021/12/01 12:30:39;;;;;;;5.60;2.38;;;9.40;99.90;;;;;;4922885;29;20047;-64
2021/12/01 12:33:21;;;;;;;3.72;2.42;;;9.40;99.90;;;;;;4928840;29;20079;-65
2021/12/01 12:35:53;;;;;;;3.53;2.20;;;9.40;99.90;;;;;;4931666;29;20614;-64
2021/12/01 12:38:19;;;;;;;3.60;2.30;;;9.50;99.90;;;;;;4927073;29;20047;-64
2021/12/01 12:40:46;;;;;;;4.05;2.40;;;9.50;99.90;;;;;;4930611;29;20237;-64
2021/12/01 12:43:13;;;;;;;3.58;2.45;;;9.50;99.90;;;;;;4930972;29;20034;-64
2021/12/01 12:45:58;;;;;;;4.20;2.50;;;9.50;99.80;;;;;;4930670;29;20032;-64
2021/12/01 12:48:33;;;;;;;3.92;1.90;;;9.50;99.80;;;;;;4927286;29;20063;-64
2021/12/01 12:51:11;;;;;;;3.45;2.08;;;9.50;99.80;;;;;;4932104;29;20578;-64
2021/12/01 12:54:01;;;;;;;3.92;2.45;;;9.60;99.70;;;;;;4942845;29;20399;-64
2021/12/01 12:56:30;;;;;;;4.10;2.30;;;9.60;99.70;;;;;;4929075;29;20115;-64
2021/12/01 12:59:29;;;;;;;3.85;2.25;;;9.60;99.70;;;;;;4927854;29;20050;-65
2021/12/01 13:02:10;;;;;;;5.45;2.33;;;9.60;99.60;;;;;;4921006;29;20404;-64
2021/12/01 13:04:51;;;;;;;3.00;2.10;;;9.60;99.60;;;;;;4929813;29;20431;-66